sensor_id;sensor_type;location;lat;lon;timestamp;temperature;humidity
23618;DHT22;18207;32.078;34.818;2023-09-07T00:00:00;33.80;39.50
23618;DHT22;18207;32.078;34.818;2023-09-07T00:02:35;33.80;38.80
23618;DHT22;18207;32.078;34.818;2023-09-07T00:05:09;33.80;38.90
23618;DHT22;18207;32.078;34.818;2023-09-07T00:07:40;33.80;38.90
23618;DHT22;18207;32.078;34.818;2023-09-07T00:10:11;33.80;38.90
23618;DHT22;18207;32.078;34.818;2023-09-07T00:12:41;33.80;38.90
23618;DHT22;18207;32.078;34.818;2023-09-07T00:15:12;33.70;38.90
23618;DHT22;18207;32.078;34.818;2023-09-07T00:17:44;33.80;38.90
23618;DHT22;18207;32.078;34.818;2023-09-07T00:20:14;33.70;38.90
23618;DHT22;18207;32.078;34.818;2023-09-07T00:22:46;33.70;38.90
23618;DHT22;18207;32.078;34.818;2023-09-07T00:25:17;33.70;38.90
23618;DHT22;18207;32.078;34.818;2023-09-07T00:27:48;33.70;38.90
23618;DHT22;18207;32.078;34.818;2023-09-07T00:30:19;33.70;38.90
23618;DHT22;18207;32.078;34.818;2023-09-07T00:32:52;33.70;38.80
23618;DHT22;18207;32.078;34.818;2023-09-07T00:35:22;33.60;38.80
23618;DHT22;18207;32.078;34.818;2023-09-07T00:37:52;33.70;38.90
23618;DHT22;18207;32.078;34.818;2023-09-07T00:40:24;33.70;38.90
23618;DHT22;18207;32.078;34.818;2023-09-07T00:42:54;33.60;38.90
23618;DHT22;18207;32.078;34.818;2023-09-07T00:45:24;33.60;38.90
23618;DHT22;18207;32.078;34.818;2023-09-07T00:47:56;33.60;38.90
23618;DHT22;18207;32.078;34.818;2023-09-07T00:50:26;33.60;39.40
23618;DHT22;18207;32.078;34.818;2023-09-07T00:52:56;33.60;38.90
23618;DHT22;18207;32.078;34.818;2023-09-07T00:55:30;33.60;38.90
23618;DHT22;18207;32.078;34.818;2023-09-07T00:58:03;33.60;39.00
23618;DHT22;18207;32.078;34.818;2023-09-07T01:00:35;33.60;39.00
23618;DHT22;18207;32.078;34.818;2023-09-07T01:03:07;33.60;39.00
23618;DHT22;18207;32.078;34.818;2023-09-07T01:05:44;33.60;39.00
23618;DHT22;18207;32.078;34.818;2023-09-07T01:08:24;33.60;38.90
23618;DHT22;18207;32.078;34.818;2023-09-07T01:10:56;33.60;39.10
23618;DHT22;18207;32.078;34.818;2023-09-07T01:13:27;33.60;39.00
23618;DHT22;18207;32.078;34.818;2023-09-07T01:15:57;33.60;39.10
23618;DHT22;18207;32.078;34.818;2023-09-07T01:18:30;33.60;39.00
23618;DHT22;18207;32.078;34.818;2023-09-07T01:21:06;33.60;39.00
23618;DHT22;18207;32.078;34.818;2023-09-07T01:23:40;33.60;38.90
23618;DHT22;18207;32.078;34.818;2023-09-07T01:26:12;33.60;38.90
23618;DHT22;18207;32.078;34.818;2023-09-07T01:28:42;33.60;38.90
23618;DHT22;18207;32.078;34.818;2023-09-07T01:31:11;33.60;38.90
23618;DHT22;18207;32.078;34.818;2023-09-07T01:33:43;33.50;38.80
23618;DHT22;18207;32.078;34.818;2023-09-07T01:36:13;33.50;38.80
23618;DHT22;18207;32.078;34.818;2023-09-07T01:38:46;33.50;38.80
23618;DHT22;18207;32.078;34.818;2023-09-07T01:41:16;33.50;38.70
23618;DHT22;18207;32.078;34.818;2023-09-07T01:43:46;33.50;38.80
23618;DHT22;18207;32.078;34.818;2023-09-07T01:46:17;33.50;38.70
23618;DHT22;18207;32.078;34.818;2023-09-07T01:48:48;33.50;38.70
23618;DHT22;18207;32.078;34.818;2023-09-07T01:51:18;33.50;38.60
23618;DHT22;18207;32.078;34.818;2023-09-07T01:53:50;33.50;38.60
23618;DHT22;18207;32.078;34.818;2023-09-07T01:56:21;33.50;38.70
23618;DHT22;18207;32.078;34.818;2023-09-07T01:58:52;33.50;38.80
23618;DHT22;18207;32.078;34.818;2023-09-07T02:01:23;33.50;38.70
23618;DHT22;18207;32.078;34.818;2023-09-07T02:03:53;33.50;38.80
23618;DHT22;18207;32.078;34.818;2023-09-07T02:06:24;33.50;38.80
23618;DHT22;18207;32.078;34.818;2023-09-07T02:08:56;33.50;38.80
23618;DHT22;18207;32.078;34.818;2023-09-07T02:11:27;33.50;38.80
23618;DHT22;18207;32.078;34.818;2023-09-07T02:13:57;33.40;38.70
23618;DHT22;18207;32.078;34.818;2023-09-07T02:16:27;33.40;38.70
23618;DHT22;18207;32.078;34.818;2023-09-07T02:19:01;33.40;38.90
23618;DHT22;18207;32.078;34.818;2023-09-07T02:21:33;33.40;38.80
23618;DHT22;18207;32.078;34.818;2023-09-07T02:24:06;33.40;38.70
23618;DHT22;18207;32.078;34.818;2023-09-07T02:26:37;33.40;38.80
23618;DHT22;18207;32.078;34.818;2023-09-07T02:29:11;33.40;38.80
23618;DHT22;18207;32.078;34.818;2023-09-07T02:31:42;33.40;38.80
23618;DHT22;18207;32.078;34.818;2023-09-07T02:34:13;33.40;38.90
23618;DHT22;18207;32.078;34.818;2023-09-07T02:36:43;33.40;38.90
23618;DHT22;18207;32.078;34.818;2023-09-07T02:39:15;33.40;38.90
23618;DHT22;18207;32.078;34.818;2023-09-07T02:41:46;33.40;38.90
23618;DHT22;18207;32.078;34.818;2023-09-07T02:44:36;33.40;38.90
23618;DHT22;18207;32.078;34.818;2023-09-07T02:47:08;33.40;39.00
23618;DHT22;18207;32.078;34.818;2023-09-07T02:49:39;33.40;39.00
23618;DHT22;18207;32.078;34.818;2023-09-07T02:52:09;33.40;39.10
23618;DHT22;18207;32.078;34.818;2023-09-07T02:54:46;33.40;39.00
23618;DHT22;18207;32.078;34.818;2023-09-07T02:57:16;33.40;39.00
23618;DHT22;18207;32.078;34.818;2023-09-07T02:59:46;33.40;39.00
23618;DHT22;18207;32.078;34.818;2023-09-07T03:02:16;33.40;39.10
23618;DHT22;18207;32.078;34.818;2023-09-07T03:04:53;33.40;39.10
23618;DHT22;18207;32.078;34.818;2023-09-07T03:07:26;33.40;39.20
23618;DHT22;18207;32.078;34.818;2023-09-07T03:10:00;33.40;39.20
23618;DHT22;18207;32.078;34.818;2023-09-07T03:12:30;33.40;39.20
23618;DHT22;18207;32.078;34.818;2023-09-07T03:15:01;33.40;39.20
23618;DHT22;18207;32.078;34.818;2023-09-07T03:17:32;33.40;39.30
23618;DHT22;18207;32.078;34.818;2023-09-07T03:20:03;33.40;39.30
23618;DHT22;18207;32.078;34.818;2023-09-07T03:22:41;33.40;39.30
23618;DHT22;18207;32.078;34.818;2023-09-07T03:25:14;33.30;39.20
23618;DHT22;18207;32.078;34.818;2023-09-07T03:27:44;33.40;39.30
23618;DHT22;18207;32.078;34.818;2023-09-07T03:30:14;33.40;39.30
23618;DHT22;18207;32.078;34.818;2023-09-07T03:32:44;33.40;39.30
23618;DHT22;18207;32.078;34.818;2023-09-07T03:35:15;33.40;39.20
23618;DHT22;18207;32.078;34.818;2023-09-07T03:37:44;33.30;39.20
23618;DHT22;18207;32.078;34.818;2023-09-07T03:40:16;33.30;39.20
23618;DHT22;18207;32.078;34.818;2023-09-07T03:42:47;33.30;39.30
23618;DHT22;18207;32.078;34.818;2023-09-07T03:45:17;33.30;39.20
23618;DHT22;18207;32.078;34.818;2023-09-07T03:47:48;33.30;39.30
23618;DHT22;18207;32.078;34.818;2023-09-07T03:50:18;33.30;39.20
23618;DHT22;18207;32.078;34.818;2023-09-07T03:52:49;33.30;39.20
23618;DHT22;18207;32.078;34.818;2023-09-07T03:55:20;33.30;39.30
23618;DHT22;18207;32.078;34.818;2023-09-07T03:57:50;33.30;39.30
23618;DHT22;18207;32.078;34.818;2023-09-07T04:00:20;33.30;39.40
23618;DHT22;18207;32.078;34.818;2023-09-07T04:02:51;33.30;39.40
23618;DHT22;18207;32.078;34.818;2023-09-07T04:05:22;33.30;39.40
23618;DHT22;18207;32.078;34.818;2023-09-07T04:07:53;33.30;39.20
23618;DHT22;18207;32.078;34.818;2023-09-07T04:10:25;33.30;39.20
23618;DHT22;18207;32.078;34.818;2023-09-07T04:12:56;33.30;39.30
23618;DHT22;18207;32.078;34.818;2023-09-07T04:15:26;33.30;39.50
23618;DHT22;18207;32.078;34.818;2023-09-07T04:18:01;33.30;39.60
23618;DHT22;18207;32.078;34.818;2023-09-07T04:20:39;33.30;39.60
23618;DHT22;18207;32.078;34.818;2023-09-07T04:23:10;33.30;39.60
23618;DHT22;18207;32.078;34.818;2023-09-07T04:25:42;33.30;39.70
23618;DHT22;18207;32.078;34.818;2023-09-07T04:28:13;33.30;39.80
23618;DHT22;18207;32.078;34.818;2023-09-07T04:30:45;33.30;39.80
23618;DHT22;18207;32.078;34.818;2023-09-07T04:33:16;33.30;39.90
23618;DHT22;18207;32.078;34.818;2023-09-07T04:35:46;33.30;39.90
23618;DHT22;18207;32.078;34.818;2023-09-07T04:38:16;33.30;40.00
23618;DHT22;18207;32.078;34.818;2023-09-07T04:40:48;33.40;40.00
23618;DHT22;18207;32.078;34.818;2023-09-07T04:43:19;33.40;40.10
23618;DHT22;18207;32.078;34.818;2023-09-07T04:45:50;33.40;40.10
23618;DHT22;18207;32.078;34.818;2023-09-07T04:48:20;33.40;40.00
23618;DHT22;18207;32.078;34.818;2023-09-07T04:50:58;33.40;39.90
23618;DHT22;18207;32.078;34.818;2023-09-07T04:53:29;33.40;40.10
23618;DHT22;18207;32.078;34.818;2023-09-07T04:56:08;33.50;40.10
23618;DHT22;18207;32.078;34.818;2023-09-07T04:58:47;33.50;40.30
23618;DHT22;18207;32.078;34.818;2023-09-07T05:01:17;33.50;40.30
23618;DHT22;18207;32.078;34.818;2023-09-07T05:03:47;33.50;40.30
23618;DHT22;18207;32.078;34.818;2023-09-07T05:06:19;33.50;40.30
23618;DHT22;18207;32.078;34.818;2023-09-07T05:08:50;33.60;40.40
23618;DHT22;18207;32.078;34.818;2023-09-07T05:11:22;33.60;40.50
23618;DHT22;18207;32.078;34.818;2023-09-07T05:13:52;33.60;40.50
23618;DHT22;18207;32.078;34.818;2023-09-07T05:16:22;33.60;40.50
23618;DHT22;18207;32.078;34.818;2023-09-07T05:18:53;33.60;40.40
23618;DHT22;18207;32.078;34.818;2023-09-07T05:21:23;33.70;40.50
23618;DHT22;18207;32.078;34.818;2023-09-07T05:23:53;33.70;40.60
23618;DHT22;18207;32.078;34.818;2023-09-07T05:26:25;33.70;40.60
23618;DHT22;18207;32.078;34.818;2023-09-07T05:28:55;33.80;40.60
23618;DHT22;18207;32.078;34.818;2023-09-07T05:31:26;33.80;40.60
23618;DHT22;18207;32.078;34.818;2023-09-07T05:33:56;33.90;40.70
23618;DHT22;18207;32.078;34.818;2023-09-07T05:36:29;33.90;40.80
23618;DHT22;18207;32.078;34.818;2023-09-07T05:39:00;33.90;40.80
23618;DHT22;18207;32.078;34.818;2023-09-07T05:41:33;34.00;40.80
23618;DHT22;18207;32.078;34.818;2023-09-07T05:44:04;34.00;40.80
23618;DHT22;18207;32.078;34.818;2023-09-07T05:46:35;34.00;40.80
23618;DHT22;18207;32.078;34.818;2023-09-07T05:49:06;34.00;40.70
23618;DHT22;18207;32.078;34.818;2023-09-07T05:51:37;34.00;40.50
23618;DHT22;18207;32.078;34.818;2023-09-07T05:54:07;34.00;40.40
23618;DHT22;18207;32.078;34.818;2023-09-07T05:56:40;34.10;40.30
23618;DHT22;18207;32.078;34.818;2023-09-07T05:59:10;34.10;40.20
23618;DHT22;18207;32.078;34.818;2023-09-07T06:01:40;34.10;40.00
23618;DHT22;18207;32.078;34.818;2023-09-07T06:04:11;34.10;39.90
23618;DHT22;18207;32.078;34.818;2023-09-07T06:06:41;34.10;39.80
23618;DHT22;18207;32.078;34.818;2023-09-07T06:09:12;34.10;39.70
23618;DHT22;18207;32.078;34.818;2023-09-07T06:11:44;34.20;39.60
23618;DHT22;18207;32.078;34.818;2023-09-07T06:14:14;34.20;39.50
23618;DHT22;18207;32.078;34.818;2023-09-07T06:16:44;34.20;39.30
23618;DHT22;18207;32.078;34.818;2023-09-07T06:19:14;34.20;39.20
23618;DHT22;18207;32.078;34.818;2023-09-07T06:21:45;34.20;39.20
23618;DHT22;18207;32.078;34.818;2023-09-07T06:24:16;34.20;39.10
23618;DHT22;18207;32.078;34.818;2023-09-07T06:26:48;34.30;39.00
23618;DHT22;18207;32.078;34.818;2023-09-07T06:29:18;34.30;38.80
23618;DHT22;18207;32.078;34.818;2023-09-07T06:31:49;34.30;38.60
23618;DHT22;18207;32.078;34.818;2023-09-07T06:34:20;34.30;38.40
23618;DHT22;18207;32.078;34.818;2023-09-07T06:36:50;34.40;38.30
23618;DHT22;18207;32.078;34.818;2023-09-07T06:39:21;34.40;38.10
23618;DHT22;18207;32.078;34.818;2023-09-07T06:41:54;34.40;38.00
23618;DHT22;18207;32.078;34.818;2023-09-07T06:44:23;34.40;37.80
23618;DHT22;18207;32.078;34.818;2023-09-07T06:46:54;34.50;37.80
23618;DHT22;18207;32.078;34.818;2023-09-07T06:49:24;34.50;37.80
23618;DHT22;18207;32.078;34.818;2023-09-07T06:51:57;34.50;37.60
23618;DHT22;18207;32.078;34.818;2023-09-07T06:54:28;34.60;37.50
23618;DHT22;18207;32.078;34.818;2023-09-07T06:57:01;34.60;37.40
23618;DHT22;18207;32.078;34.818;2023-09-07T06:59:32;34.60;37.20
23618;DHT22;18207;32.078;34.818;2023-09-07T07:02:03;34.60;37.10
23618;DHT22;18207;32.078;34.818;2023-09-07T07:04:33;34.70;37.60
23618;DHT22;18207;32.078;34.818;2023-09-07T07:07:07;34.70;36.90
23618;DHT22;18207;32.078;34.818;2023-09-07T07:09:37;34.80;36.80
23618;DHT22;18207;32.078;34.818;2023-09-07T07:12:10;34.80;36.50
23618;DHT22;18207;32.078;34.818;2023-09-07T07:14:40;34.80;36.30
23618;DHT22;18207;32.078;34.818;2023-09-07T07:17:10;34.80;36.20
23618;DHT22;18207;32.078;34.818;2023-09-07T07:19:40;34.90;36.10
23618;DHT22;18207;32.078;34.818;2023-09-07T07:22:12;34.90;36.00
23618;DHT22;18207;32.078;34.818;2023-09-07T07:24:46;35.00;36.00
23618;DHT22;18207;32.078;34.818;2023-09-07T07:27:18;35.00;35.80
23618;DHT22;18207;32.078;34.818;2023-09-07T07:29:50;35.00;35.60
23618;DHT22;18207;32.078;34.818;2023-09-07T07:32:21;35.10;35.50
23618;DHT22;18207;32.078;34.818;2023-09-07T07:34:53;35.10;35.40
23618;DHT22;18207;32.078;34.818;2023-09-07T07:37:22;35.10;35.20
23618;DHT22;18207;32.078;34.818;2023-09-07T07:39:53;35.20;35.10
23618;DHT22;18207;32.078;34.818;2023-09-07T07:42:25;35.20;35.20
23618;DHT22;18207;32.078;34.818;2023-09-07T07:44:55;35.20;35.00
23618;DHT22;18207;32.078;34.818;2023-09-07T07:47:26;35.30;34.90
23618;DHT22;18207;32.078;34.818;2023-09-07T07:49:56;35.30;34.70
23618;DHT22;18207;32.078;34.818;2023-09-07T07:52:27;35.30;34.60
23618;DHT22;18207;32.078;34.818;2023-09-07T07:54:57;35.30;34.40
23618;DHT22;18207;32.078;34.818;2023-09-07T07:57:31;35.30;34.30
23618;DHT22;18207;32.078;34.818;2023-09-07T08:00:05;35.30;34.10
23618;DHT22;18207;32.078;34.818;2023-09-07T08:02:37;35.30;34.10
23618;DHT22;18207;32.078;34.818;2023-09-07T08:05:08;35.30;34.50
23618;DHT22;18207;32.078;34.818;2023-09-07T08:07:38;35.30;34.70
23618;DHT22;18207;32.078;34.818;2023-09-07T08:10:09;35.30;34.90
23618;DHT22;18207;32.078;34.818;2023-09-07T08:12:42;35.40;35.00
23618;DHT22;18207;32.078;34.818;2023-09-07T08:15:17;35.40;35.20
23618;DHT22;18207;32.078;34.818;2023-09-07T08:17:51;35.40;35.20
23618;DHT22;18207;32.078;34.818;2023-09-07T08:20:21;35.40;35.20
23618;DHT22;18207;32.078;34.818;2023-09-07T08:22:51;35.40;35.20
23618;DHT22;18207;32.078;34.818;2023-09-07T08:25:21;35.40;35.20
23618;DHT22;18207;32.078;34.818;2023-09-07T08:27:55;35.50;35.30
23618;DHT22;18207;32.078;34.818;2023-09-07T08:30:27;35.40;35.20
23618;DHT22;18207;32.078;34.818;2023-09-07T08:32:57;35.50;35.30
23618;DHT22;18207;32.078;34.818;2023-09-07T08:35:30;35.50;35.40
23618;DHT22;18207;32.078;34.818;2023-09-07T08:38:03;35.50;35.30
23618;DHT22;18207;32.078;34.818;2023-09-07T08:40:36;35.50;35.30
23618;DHT22;18207;32.078;34.818;2023-09-07T08:43:09;35.50;35.30
23618;DHT22;18207;32.078;34.818;2023-09-07T08:45:49;35.50;35.30
23618;DHT22;18207;32.078;34.818;2023-09-07T08:48:26;35.50;35.30
23618;DHT22;18207;32.078;34.818;2023-09-07T08:51:01;35.50;35.30
23618;DHT22;18207;32.078;34.818;2023-09-07T08:53:33;35.50;35.30
23618;DHT22;18207;32.078;34.818;2023-09-07T08:56:04;35.50;35.30
23618;DHT22;18207;32.078;34.818;2023-09-07T08:58:39;35.50;35.90
23618;DHT22;18207;32.078;34.818;2023-09-07T09:01:10;35.50;35.40
23618;DHT22;18207;32.078;34.818;2023-09-07T09:03:42;35.50;35.30
23618;DHT22;18207;32.078;34.818;2023-09-07T09:06:15;35.50;35.30
23618;DHT22;18207;32.078;34.818;2023-09-07T09:08:53;35.50;35.20
23618;DHT22;18207;32.078;34.818;2023-09-07T09:11:25;35.50;35.20
23618;DHT22;18207;32.078;34.818;2023-09-07T09:13:58;35.50;35.10
23618;DHT22;18207;32.078;34.818;2023-09-07T09:16:28;35.50;35.10
23618;DHT22;18207;32.078;34.818;2023-09-07T09:18:58;35.50;35.00
23618;DHT22;18207;32.078;34.818;2023-09-07T09:21:29;35.50;34.90
23618;DHT22;18207;32.078;34.818;2023-09-07T09:24:01;35.50;34.90
23618;DHT22;18207;32.078;34.818;2023-09-07T09:26:33;35.50;34.90
23618;DHT22;18207;32.078;34.818;2023-09-07T09:29:23;35.50;34.70
23618;DHT22;18207;32.078;34.818;2023-09-07T09:31:56;35.40;34.30
23618;DHT22;18207;32.078;34.818;2023-09-07T09:34:32;35.40;34.50
23618;DHT22;18207;32.078;34.818;2023-09-07T09:37:04;35.50;34.50
23618;DHT22;18207;32.078;34.818;2023-09-07T09:39:42;35.50;34.50
23618;DHT22;18207;32.078;34.818;2023-09-07T09:42:13;35.50;34.30
23618;DHT22;18207;32.078;34.818;2023-09-07T09:44:49;35.40;34.20
23618;DHT22;18207;32.078;34.818;2023-09-07T09:47:22;35.50;34.30
23618;DHT22;18207;32.078;34.818;2023-09-07T09:49:53;35.40;34.20
23618;DHT22;18207;32.078;34.818;2023-09-07T09:52:27;35.40;34.20
23618;DHT22;18207;32.078;34.818;2023-09-07T09:55:00;35.50;34.20
23618;DHT22;18207;32.078;34.818;2023-09-07T09:57:34;35.50;34.10
23618;DHT22;18207;32.078;34.818;2023-09-07T10:00:08;35.40;34.00
23618;DHT22;18207;32.078;34.818;2023-09-07T10:02:51;35.40;34.00
23618;DHT22;18207;32.078;34.818;2023-09-07T10:05:30;35.40;34.00
23618;DHT22;18207;32.078;34.818;2023-09-07T10:08:02;35.40;34.00
23618;DHT22;18207;32.078;34.818;2023-09-07T10:10:41;35.40;34.00
23618;DHT22;18207;32.078;34.818;2023-09-07T10:13:13;35.40;34.00
23618;DHT22;18207;32.078;34.818;2023-09-07T10:15:48;35.40;34.00
23618;DHT22;18207;32.078;34.818;2023-09-07T10:18:36;35.40;34.00
23618;DHT22;18207;32.078;34.818;2023-09-07T10:21:08;35.50;34.00
23618;DHT22;18207;32.078;34.818;2023-09-07T10:23:40;35.40;34.00
23618;DHT22;18207;32.078;34.818;2023-09-07T10:26:12;35.40;33.90
23618;DHT22;18207;32.078;34.818;2023-09-07T10:28:45;35.40;33.90
23618;DHT22;18207;32.078;34.818;2023-09-07T10:31:24;35.40;34.00
23618;DHT22;18207;32.078;34.818;2023-09-07T10:34:10;35.40;34.00
23618;DHT22;18207;32.078;34.818;2023-09-07T10:36:41;35.40;33.90
23618;DHT22;18207;32.078;34.818;2023-09-07T10:39:11;35.40;33.90
23618;DHT22;18207;32.078;34.818;2023-09-07T10:41:46;35.30;33.90
23618;DHT22;18207;32.078;34.818;2023-09-07T10:44:25;35.40;33.90
23618;DHT22;18207;32.078;34.818;2023-09-07T10:46:58;35.40;33.80
23618;DHT22;18207;32.078;34.818;2023-09-07T10:49:29;35.30;33.70
23618;DHT22;18207;32.078;34.818;2023-09-07T10:51:59;35.30;33.80
23618;DHT22;18207;32.078;34.818;2023-09-07T10:54:32;35.30;33.80
23618;DHT22;18207;32.078;34.818;2023-09-07T10:57:08;35.30;33.90
23618;DHT22;18207;32.078;34.818;2023-09-07T10:59:45;35.30;33.70
23618;DHT22;18207;32.078;34.818;2023-09-07T11:02:19;35.30;33.70
23618;DHT22;18207;32.078;34.818;2023-09-07T11:04:50;35.30;33.70
23618;DHT22;18207;32.078;34.818;2023-09-07T11:07:21;35.30;33.70
23618;DHT22;18207;32.078;34.818;2023-09-07T11:09:52;35.30;33.70
23618;DHT22;18207;32.078;34.818;2023-09-07T11:12:23;35.30;33.80
23618;DHT22;18207;32.078;34.818;2023-09-07T11:14:53;35.30;33.80
23618;DHT22;18207;32.078;34.818;2023-09-07T11:17:41;35.30;33.90
23618;DHT22;18207;32.078;34.818;2023-09-07T11:20:13;35.30;33.90
23618;DHT22;18207;32.078;34.818;2023-09-07T11:22:44;35.30;33.90
23618;DHT22;18207;32.078;34.818;2023-09-07T11:25:35;35.30;33.90
23618;DHT22;18207;32.078;34.818;2023-09-07T11:28:06;35.30;33.70
23618;DHT22;18207;32.078;34.818;2023-09-07T11:30:37;35.30;33.50
23618;DHT22;18207;32.078;34.818;2023-09-07T11:33:23;35.30;33.30
23618;DHT22;18207;32.078;34.818;2023-09-07T11:35:53;35.30;33.30
23618;DHT22;18207;32.078;34.818;2023-09-07T11:38:30;35.30;33.20
23618;DHT22;18207;32.078;34.818;2023-09-07T11:41:14;35.30;32.90
23618;DHT22;18207;32.078;34.818;2023-09-07T11:43:52;35.30;33.00
23618;DHT22;18207;32.078;34.818;2023-09-07T11:46:23;35.30;33.00
23618;DHT22;18207;32.078;34.818;2023-09-07T11:48:55;35.30;33.00
23618;DHT22;18207;32.078;34.818;2023-09-07T11:51:25;35.30;32.80
23618;DHT22;18207;32.078;34.818;2023-09-07T11:53:56;35.30;32.70
23618;DHT22;18207;32.078;34.818;2023-09-07T11:56:27;35.30;32.70
23618;DHT22;18207;32.078;34.818;2023-09-07T11:58:59;35.40;32.60
23618;DHT22;18207;32.078;34.818;2023-09-07T12:01:40;35.40;32.60
23618;DHT22;18207;32.078;34.818;2023-09-07T12:04:13;35.40;32.60
23618;DHT22;18207;32.078;34.818;2023-09-07T12:06:43;35.40;32.50
23618;DHT22;18207;32.078;34.818;2023-09-07T12:09:14;35.40;32.30
23618;DHT22;18207;32.078;34.818;2023-09-07T12:11:45;35.40;32.10
23618;DHT22;18207;32.078;34.818;2023-09-07T12:14:16;35.40;32.10
23618;DHT22;18207;32.078;34.818;2023-09-07T12:16:46;35.40;32.10
23618;DHT22;18207;32.078;34.818;2023-09-07T12:19:19;35.40;32.20
23618;DHT22;18207;32.078;34.818;2023-09-07T12:21:50;35.50;32.20
23618;DHT22;18207;32.078;34.818;2023-09-07T12:24:21;35.50;32.30
23618;DHT22;18207;32.078;34.818;2023-09-07T12:26:51;35.50;32.30
23618;DHT22;18207;32.078;34.818;2023-09-07T12:29:24;35.50;32.10
23618;DHT22;18207;32.078;34.818;2023-09-07T12:32:08;35.50;32.10
23618;DHT22;18207;32.078;34.818;2023-09-07T12:34:45;35.50;32.10
23618;DHT22;18207;32.078;34.818;2023-09-07T12:37:16;35.50;32.00
23618;DHT22;18207;32.078;34.818;2023-09-07T12:39:53;35.50;31.90
23618;DHT22;18207;32.078;34.818;2023-09-07T12:42:25;35.50;31.90
23618;DHT22;18207;32.078;34.818;2023-09-07T12:44:58;35.50;31.80
23618;DHT22;18207;32.078;34.818;2023-09-07T12:47:32;35.50;32.40
23618;DHT22;18207;32.078;34.818;2023-09-07T12:50:19;35.50;31.70
23618;DHT22;18207;32.078;34.818;2023-09-07T12:53:02;35.60;31.50
23618;DHT22;18207;32.078;34.818;2023-09-07T12:55:33;35.50;31.50
23618;DHT22;18207;32.078;34.818;2023-09-07T12:58:03;35.60;31.60
23618;DHT22;18207;32.078;34.818;2023-09-07T13:00:34;35.50;31.50
23618;DHT22;18207;32.078;34.818;2023-09-07T13:03:05;35.50;31.50
23618;DHT22;18207;32.078;34.818;2023-09-07T13:05:37;35.50;31.50
23618;DHT22;18207;32.078;34.818;2023-09-07T13:08:08;35.50;31.40
23618;DHT22;18207;32.078;34.818;2023-09-07T13:10:38;35.50;31.40
23618;DHT22;18207;32.078;34.818;2023-09-07T13:13:20;35.40;31.40
23618;DHT22;18207;32.078;34.818;2023-09-07T13:15:53;35.40;31.30
23618;DHT22;18207;32.078;34.818;2023-09-07T13:18:24;35.40;31.30
23618;DHT22;18207;32.078;34.818;2023-09-07T13:20:57;35.40;31.30
23618;DHT22;18207;32.078;34.818;2023-09-07T13:23:29;35.40;31.30
23618;DHT22;18207;32.078;34.818;2023-09-07T13:26:03;35.30;31.30
23618;DHT22;18207;32.078;34.818;2023-09-07T13:28:35;35.30;31.30
23618;DHT22;18207;32.078;34.818;2023-09-07T13:31:10;35.20;31.30
23618;DHT22;18207;32.078;34.818;2023-09-07T13:33:40;35.20;31.40
23618;DHT22;18207;32.078;34.818;2023-09-07T13:36:13;35.20;31.50
23618;DHT22;18207;32.078;34.818;2023-09-07T13:38:45;35.20;31.40
23618;DHT22;18207;32.078;34.818;2023-09-07T13:41:19;35.10;31.40
23618;DHT22;18207;32.078;34.818;2023-09-07T13:43:48;35.10;31.40
23618;DHT22;18207;32.078;34.818;2023-09-07T13:46:18;35.10;31.50
23618;DHT22;18207;32.078;34.818;2023-09-07T13:48:48;35.10;31.50
23618;DHT22;18207;32.078;34.818;2023-09-07T13:51:21;35.10;31.50
23618;DHT22;18207;32.078;34.818;2023-09-07T13:53:56;35.10;31.50
23618;DHT22;18207;32.078;34.818;2023-09-07T13:56:27;35.10;31.40
23618;DHT22;18207;32.078;34.818;2023-09-07T13:59:00;35.00;32.10
23618;DHT22;18207;32.078;34.818;2023-09-07T14:01:30;35.00;31.60
23618;DHT22;18207;32.078;34.818;2023-09-07T14:04:00;35.00;31.60
23618;DHT22;18207;32.078;34.818;2023-09-07T14:06:33;35.00;31.60
23618;DHT22;18207;32.078;34.818;2023-09-07T14:09:05;35.00;31.70
23618;DHT22;18207;32.078;34.818;2023-09-07T14:11:36;34.90;31.70
23618;DHT22;18207;32.078;34.818;2023-09-07T14:14:06;34.90;31.80
23618;DHT22;18207;32.078;34.818;2023-09-07T14:16:36;34.90;31.80
23618;DHT22;18207;32.078;34.818;2023-09-07T14:19:06;34.90;31.90
23618;DHT22;18207;32.078;34.818;2023-09-07T14:21:42;34.90;32.00
23618;DHT22;18207;32.078;34.818;2023-09-07T14:24:13;34.90;32.20
23618;DHT22;18207;32.078;34.818;2023-09-07T14:26:44;34.80;32.20
23618;DHT22;18207;32.078;34.818;2023-09-07T14:29:14;34.90;32.30
23618;DHT22;18207;32.078;34.818;2023-09-07T14:31:44;34.80;32.20
23618;DHT22;18207;32.078;34.818;2023-09-07T14:34:15;34.80;32.20
23618;DHT22;18207;32.078;34.818;2023-09-07T14:36:49;34.80;32.30
23618;DHT22;18207;32.078;34.818;2023-09-07T14:39:28;34.80;32.30
23618;DHT22;18207;32.078;34.818;2023-09-07T14:41:58;34.80;32.40
23618;DHT22;18207;32.078;34.818;2023-09-07T14:44:29;34.80;32.50
23618;DHT22;18207;32.078;34.818;2023-09-07T14:47:02;34.90;32.60
23618;DHT22;18207;32.078;34.818;2023-09-07T14:49:37;34.90;32.60
23618;DHT22;18207;32.078;34.818;2023-09-07T14:52:16;34.80;32.50
23618;DHT22;18207;32.078;34.818;2023-09-07T14:54:49;34.80;32.50
23618;DHT22;18207;32.078;34.818;2023-09-07T14:57:23;34.80;32.60
23618;DHT22;18207;32.078;34.818;2023-09-07T14:59:54;34.80;32.60
23618;DHT22;18207;32.078;34.818;2023-09-07T15:02:29;34.80;32.60
23618;DHT22;18207;32.078;34.818;2023-09-07T15:05:03;34.80;32.60
23618;DHT22;18207;32.078;34.818;2023-09-07T15:07:35;34.80;32.60
23618;DHT22;18207;32.078;34.818;2023-09-07T15:10:10;34.80;32.60
23618;DHT22;18207;32.078;34.818;2023-09-07T15:12:42;34.80;32.50
23618;DHT22;18207;32.078;34.818;2023-09-07T15:15:15;34.80;32.60
23618;DHT22;18207;32.078;34.818;2023-09-07T15:17:47;34.80;32.60
23618;DHT22;18207;32.078;34.818;2023-09-07T15:20:24;34.80;32.50
23618;DHT22;18207;32.078;34.818;2023-09-07T15:22:58;34.80;32.50
23618;DHT22;18207;32.078;34.818;2023-09-07T15:25:29;34.80;32.50
23618;DHT22;18207;32.078;34.818;2023-09-07T15:28:00;34.80;32.60
23618;DHT22;18207;32.078;34.818;2023-09-07T15:30:37;34.80;32.60
23618;DHT22;18207;32.078;34.818;2023-09-07T15:33:16;34.80;32.60
23618;DHT22;18207;32.078;34.818;2023-09-07T15:35:46;34.80;32.80
23618;DHT22;18207;32.078;34.818;2023-09-07T15:38:17;34.80;32.90
23618;DHT22;18207;32.078;34.818;2023-09-07T15:40:48;34.70;32.90
23618;DHT22;18207;32.078;34.818;2023-09-07T15:43:18;34.80;32.90
23618;DHT22;18207;32.078;34.818;2023-09-07T15:45:48;34.80;32.90